Terminal Aerodrome Forecast
Issued by NWS

Home | Current Version | Previous Version | Text Only | Print | Product List | Glossary On
Versions: 1 2 3 4 5 6 7 8 9 10 11 12 13
000
FTUS43 KDVN 260520
TAFBRL
TAF
KBRL 260520Z 2606/2706 14006KT P6SM BKN250
     FM260900 15006KT 5SM BR BKN250
     FM261300 18008KT P6SM BKN250 PROB30 2621/2624 4SM TSRA BKN040CB
     FM270000 08004KT 4SM TSRA BR SCT015 OVC025CB=

USA.gov is the U.S. government's official web portal to all federal, state and local government web resources and services.